Time;durP1;ratioP1;P1;durP2;ratioP2;P2;SDS_P1;SDS_P2;PMS_P1;PMS_P2;Temp;Humidity;BMP_temperature;BMP_pressure;BME280_temperature;BME280_humidity;BME280_pressure;Samples;Min_cycle;Max_cycle;Signal;HPM_P1;HPM_P2
2022/06/09 00:01:46;;;;;;;;;;;;;;;;;;5014397;28;19917;-82
2022/06/09 00:04:11;;;;;;;;;;;14.70;99.90;;;;;;5010664;28;19913;-85
2022/06/09 00:06:44;;;;;;;;;;;14.80;99.90;;;;;;5014260;28;19906;-85
2022/06/09 00:09:09;;;;;;;;;;;14.70;99.90;;;;;;5014128;28;20016;-84
2022/06/09 00:11:35;;;;;;;;;;;;;;;;;;5012448;28;19993;-84
2022/06/09 00:14:01;;;;;;;;;;;14.80;99.90;;;;;;5014036;28;19916;-85
2022/06/09 00:16:27;;;;;;;;;;;;;;;;;;5014693;28;19906;-85
2022/06/09 00:18:53;;;;;;;;;;;;;;;;;;5010476;28;19959;-85
2022/06/09 00:21:19;;;;;;;;;;;14.70;99.90;;;;;;5013903;28;19906;-85
2022/06/09 00:23:44;;;;;;;;;;;14.70;99.90;;;;;;5010393;28;20488;-84
2022/06/09 00:26:10;;;;;;;;;;;14.70;99.90;;;;;;5009969;28;20415;-83
2022/06/09 00:28:35;;;;;;;;;;;;;;;;;;5011480;28;20016;-84
2022/06/09 00:31:01;;;;;;;;;;;;;;;;;;5011988;28;20358;-84
2022/06/09 00:33:27;;;;;;;;;;;;;;;;;;5002706;28;19917;-83
2022/06/09 00:35:53;;;;;;;;;;;14.70;99.90;;;;;;5013935;28;20393;-84
2022/06/09 00:38:19;;;;;;;;;;;;;;;;;;5012973;28;19947;-84
2022/06/09 00:40:44;;;;;;;;;;;;;;;;;;5010284;28;19910;-83
2022/06/09 00:43:10;;;;;;;;;;;;;;;;;;5010135;28;20031;-84
2022/06/09 00:45:38;;;;;;;;;;;14.80;99.90;;;;;;5015244;28;20008;-84
2022/06/09 00:48:03;;;;;;;;;;;;;;;;;;5009310;28;20511;-84
2022/06/09 00:50:30;;;;;;;;;;;14.90;99.90;;;;;;5013367;28;19927;-83
2022/06/09 00:52:57;;;;;;;;;;;15.70;99.90;;;;;;5016226;28;19937;-84
2022/06/09 00:55:23;;;;;;;;;;;;;;;;;;5010805;28;20797;-84
2022/06/09 00:57:49;;;;;;;;;;;;;;;;;;5007425;28;20004;-84
2022/06/09 01:00:15;;;;;;;;;;;;;;;;;;5005089;28;20317;-83
2022/06/09 01:02:41;;;;;;;;;;;;;;;;;;5012943;28;19960;-83
2022/06/09 01:05:07;;;;;;;;;;;14.50;99.90;;;;;;5006236;28;19958;-84
2022/06/09 01:07:32;;;;;;;;;;;;;;;;;;5013037;28;20393;-84
2022/06/09 01:09:58;;;;;;;;;;;15.10;99.90;;;;;;5013375;28;19917;-84
2022/06/09 01:12:24;;;;;;;;;;;;;;;;;;5011772;28;19968;-84
2022/06/09 01:14:50;;;;;;;;;;;14.40;99.90;;;;;;5008850;28;19909;-84
2022/06/09 01:17:15;;;;;;;;;;;;;;;;;;5013160;28;20506;-84
2022/06/09 01:19:41;;;;;;;;;;;;;;;;;;5007043;28;19909;-83
2022/06/09 01:22:26;;;;;;;;;;;15.30;99.90;;;;;;5012876;28;19952;-84
2022/06/09 01:24:52;;;;;;;;;;;;;;;;;;5011265;28;19920;-84
2022/06/09 01:27:18;;;;;;;;;;;;;;;;;;5013123;28;20773;-84
2022/06/09 01:29:43;;;;;;;;;;;14.50;99.90;;;;;;5010192;28;19918;-84
2022/06/09 01:32:21;;;;;;;;;;;14.50;99.90;;;;;;5011240;28;19917;-84
2022/06/09 01:34:47;;;;;;;;;;;;;;;;;;5013189;28;19905;-83
2022/06/09 01:37:13;;;;;;;;;;;;;;;;;;5014390;28;20004;-85
2022/06/09 01:39:43;;;;;;;;;;;14.50;99.90;;;;;;5003240;28;19913;-84
2022/06/09 01:42:09;;;;;;;;;;;;;;;;;;5007886;28;19913;-84
2022/06/09 01:44:34;;;;;;;;;;;14.50;99.90;;;;;;5012704;28;19916;-85
2022/06/09 01:47:00;;;;;;;;;;;15.60;99.90;;;;;;5008025;28;19917;-84
2022/06/09 01:49:26;;;;;;;;;;;;;;;;;;5005156;28;19928;-84
2022/06/09 01:51:52;;;;;;;;;;;;;;;;;;5012041;28;19913;-84
2022/06/09 01:54:17;;;;;;;;;;;;;;;;;;5006649;28;20036;-84
2022/06/09 01:56:46;;;;;;;;;;;14.40;99.90;;;;;;4999790;28;19909;-84
2022/06/09 01:59:14;;;;;;;;;;;14.40;99.90;;;;;;5003668;28;20014;-84
2022/06/09 02:01:43;;;;;;;;;;;14.40;99.90;;;;;;5008902;28;20540;-85
2022/06/09 02:04:08;;;;;;;;;;;;;;;;;;5004836;28;19910;-84
2022/06/09 02:06:34;;;;;;;;;;;14.50;99.90;;;;;;5011865;28;19905;-85
2022/06/09 02:09:00;;;;;;;;;;;15.00;99.90;;;;;;5003984;28;20312;-84
2022/06/09 02:11:28;;;;;;;3.50;2.17;;;;;;;;;;5005610;28;19909;-84
2022/06/09 02:13:56;;;;;;;8.85;2.85;;;;;;;;;;5004072;28;20035;-85
2022/06/09 02:16:22;;;;;;;4.57;2.95;;;;;;;;;;5005724;28;20109;-84
2022/06/09 02:18:50;;;;;;;4.32;2.53;;;;;;;;;;5000245;28;20076;-84
2022/06/09 02:21:29;;;;;;;;;;;14.30;99.90;;;;;;5008557;28;20774;-83
2022/06/09 02:23:55;;;;;;;;;;;14.70;99.90;;;;;;5007304;28;19906;-84
2022/06/09 02:26:20;;;;;;;;;;;;;;;;;;5009859;28;19928;-83
2022/06/09 02:28:47;;;;;;;;;;;14.40;99.90;;;;;;5012061;28;19967;-83
2022/06/09 02:31:13;;;;;;;;;;;;;;;;;;5017370;28;19913;-82
2022/06/09 02:33:38;;;;;;;;;;;15.40;99.90;;;;;;5016275;28;19917;-83
2022/06/09 02:36:04;;;;;;;;;;;;;;;;;;5010828;28;19999;-82
2022/06/09 02:38:30;;;;;;;;;;;;;;;;;;5011990;28;19987;-82
2022/06/09 02:40:56;;;;;;;;;;;14.40;99.90;;;;;;5008098;28;20366;-83
2022/06/09 02:43:22;;;;;;;;;;;14.50;99.90;;;;;;5011053;28;19917;-82
2022/06/09 02:45:48;;;;;;;;;;;;;;;;;;5004948;28;19905;-83
2022/06/09 02:48:14;;;;;;;;;;;14.50;99.90;;;;;;5007891;28;19921;-83
2022/06/09 02:50:39;;;;;;;;;;;14.50;99.90;;;;;;5007755;28;20393;-81
2022/06/09 02:53:06;;;;;;;;;;;14.60;99.90;;;;;;5009766;28;19913;-82
2022/06/09 02:55:31;;;;;;;;;;;14.30;99.90;;;;;;5009589;28;19915;-84
2022/06/09 02:57:57;;;;;;;;;;;;;;;;;;5007416;28;20004;-82
2022/06/09 03:00:23;;;;;;;;;;;14.30;99.90;;;;;;5004190;28;19920;-82
2022/06/09 03:02:49;;;;;;;;;;;;;;;;;;5009451;28;19909;-82
2022/06/09 03:05:14;;;;;;;;;;;;;;;;;;5007074;28;20008;-83
2022/06/09 03:07:40;;;;;;;;;;;15.40;99.90;;;;;;5010940;28;19921;-81
2022/06/09 03:10:06;;;;;;;;;;;;;;;;;;5007550;28;19917;-81
2022/06/09 03:12:32;;;;;;;;;;;14.30;99.90;;;;;;5009583;28;19956;-82
2022/06/09 03:14:57;;;;;;;;;;;14.30;99.90;;;;;;5027469;28;20285;-82
2022/06/09 03:17:25;;;;;;;;;;;;;;;;;;5005831;28;19920;-81
2022/06/09 03:19:50;;;;;;;;;;;14.50;99.90;;;;;;5014249;28;19984;-82
2022/06/09 03:22:17;;;;;;;;;;;14.30;99.90;;;;;;5017508;28;19948;-83
2022/06/09 03:24:43;;;;;;;;;;;14.30;99.90;;;;;;5018178;28;20466;-83
2022/06/09 03:27:09;;;;;;;;;;;14.50;99.90;;;;;;5023493;28;19960;-83
2022/06/09 03:29:35;;;;;;;;;;;;;;;;;;5013368;28;19957;-83
2022/06/09 03:32:00;;;;;;;;;;;15.40;99.90;;;;;;5015989;28;19998;-82
2022/06/09 03:34:26;;;;;;;;;;;;;;;;;;5015404;28;19910;-82
2022/06/09 03:36:52;;;;;;;;;;;;;;;;;;5016881;28;19914;-83
2022/06/09 03:39:17;;;;;;;;;;;14.30;99.90;;;;;;5021884;28;19948;-83
2022/06/09 03:41:43;;;;;;;;;;;14.20;99.90;;;;;;5019010;28;19913;-82
2022/06/09 03:44:09;;;;;;;;;;;;;;;;;;5014460;28;20371;-83
2022/06/09 03:46:35;;;;;;;;;;;;;;;;;;5014670;28;20372;-83
2022/06/09 03:49:01;;;;;;;;;;;14.30;99.90;;;;;;5014466;28;19917;-83
2022/06/09 03:51:27;;;;;;;;;;;;;;;;;;5017940;28;19959;-82
2022/06/09 03:53:52;;;;;;;;;;;15.10;99.90;;;;;;5009657;28;20365;-83
2022/06/09 03:56:19;;;;;;;;;;;14.40;99.90;;;;;;5014110;28;19906;-83
2022/06/09 03:58:44;;;;;;;;;;;14.20;99.90;;;;;;5012139;28;19909;-82
2022/06/09 04:01:13;;;;;;;;;;;;;;;;;;5012821;28;19910;-84
2022/06/09 04:03:41;;;;;;;;;;;14.20;99.90;;;;;;5013099;28;20335;-84
2022/06/09 04:06:14;;;;;;;;;;;14.40;99.90;;;;;;5009349;28;19914;-82
2022/06/09 04:08:40;;;;;;;;;;;14.50;99.90;;;;;;5015051;28;20016;-82
2022/06/09 04:11:06;;;;;;;;;;;;;;;;;;5009597;28;20043;-81
2022/06/09 04:13:31;;;;;;;;;;;14.40;99.90;;;;;;5017944;28;19913;-83
2022/06/09 04:15:57;;;;;;;;;;;;;;;;;;5016194;28;19963;-83
2022/06/09 04:18:23;;;;;;;;;;;;;;;;;;5012966;28;20062;-83
2022/06/09 04:20:49;;;;;;;;;;;;;;;;;;5006775;28;19916;-83
2022/06/09 04:23:15;;;;;;;4.03;2.03;;;;;;;;;;5013342;28;20492;-83
2022/06/09 04:25:41;;;;;;;4.03;2.45;;;14.80;99.90;;;;;;5015747;28;20397;-83
2022/06/09 04:28:06;;;;;;;;;;;;;;;;;;5013469;28;20038;-83
2022/06/09 04:30:32;;;;;;;;;;;;;;;;;;5003962;28;19905;-82
2022/06/09 04:32:58;;;;;;;;;;;14.50;99.90;;;;;;5006715;28;19905;-82
2022/06/09 04:35:24;;;;;;;;;;;15.30;99.90;;;;;;5013447;28;20378;-82
2022/06/09 04:38:02;;;;;;;2.47;1.65;;;15.80;99.90;;;;;;5013614;28;20369;-82
2022/06/09 04:40:35;;;;;;;7.25;2.50;;;14.80;99.90;;;;;;5015991;28;20032;-81
2022/06/09 04:43:01;;;;;;;;;;;;;;;;;;5015201;28;20028;-83
2022/06/09 04:45:27;;;;;;;5.28;2.33;;;;;;;;;;5004113;28;20373;-84
2022/06/09 04:47:53;;;;;;;3.42;2.10;;;;;;;;;;5013708;28;20046;-82
2022/06/09 04:50:19;;;;;;;;;;;15.30;99.90;;;;;;5014787;28;20509;-83
2022/06/09 04:52:46;;;;;;;2.35;1.75;;;16.30;99.90;;;;;;5014528;28;19912;-82
2022/06/09 04:55:13;;;;;;;4.10;1.40;;;;;;;;;;5016082;28;20069;-81
2022/06/09 04:57:38;;;;;;;1.92;1.38;;;;;;;;;;5012476;28;20025;-82
2022/06/09 05:00:09;;;;;;;3.13;1.70;;;;;;;;;;5015956;28;20290;-82
2022/06/09 05:02:34;;;;;;;3.10;1.73;;;15.80;99.90;;;;;;5012767;28;20022;-83
2022/06/09 05:05:00;;;;;;;4.60;1.60;;;16.20;99.90;;;;;;5017176;28;20048;-82
2022/06/09 05:07:26;;;;;;;2.85;1.63;;;;;;;;;;5019468;28;20018;-82
2022/06/09 05:09:52;;;;;;;4.30;2.22;;;;;;;;;;5022972;28;20052;-82
2022/06/09 05:12:17;;;;;;;3.78;1.83;;;;;;;;;;5016845;28;20478;-82
2022/06/09 05:14:43;;;;;;;10.55;2.05;;;;;;;;;;5014300;28;22201;-82
2022/06/09 05:17:09;;;;;;;5.53;1.80;;;;;;;;;;5016756;28;20056;-83
2022/06/09 05:19:35;;;;;;;2.08;1.35;;;16.60;99.90;;;;;;5017225;28;20054;-83
2022/06/09 05:22:01;;;;;;;14.90;2.40;;;;;;;;;;5039676;28;20022;-83
2022/06/09 05:24:27;;;;;;;3.10;1.65;;;;;;;;;;5036083;28;20018;-83
2022/06/09 05:26:53;;;;;;;2.33;1.30;;;;;;;;;;5042841;28;20017;-83
2022/06/09 05:29:19;;;;;;;4.05;0.95;;;;;;;;;;5033289;28;20050;-81
2022/06/09 05:31:45;;;;;;;2.33;1.42;;;;;;;;;;5031477;28;20026;-81
2022/06/09 05:34:11;;;;;;;2.72;1.80;;;;;;;;;;5033712;28;20056;-81
2022/06/09 05:36:37;;;;;;;3.70;1.77;;;;;;;;;;5034078;28;20036;-81
2022/06/09 05:44:51;;;;;;;3.70;1.15;;;;;;;;;;5013739;28;20044;-82
2022/06/09 05:47:20;;;;;;;2.50;1.65;;;16.50;99.90;;;;;;5010551;28;20029;-82
2022/06/09 05:49:47;;;;;;;5.15;2.78;;;;;;;;;;5009386;28;20053;-81
2022/06/09 05:52:17;;;;;;;2.47;1.77;;;16.90;99.90;;;;;;5017551;28;20030;-82
2022/06/09 05:54:43;;;;;;;4.30;1.42;;;;;;;;;;5009463;28;20152;-82
2022/06/09 05:57:09;;;;;;;2.72;1.95;;;;;;;;;;5025214;28;20074;-82
2022/06/09 05:59:36;;;;;;;1.95;1.23;;;;;;;;;;5032077;28;20134;-81
2022/06/09 06:02:02;;;;;;;2.40;1.48;;;16.30;99.90;;;;;;5033543;28;20068;-81
2022/06/09 06:04:28;;;;;;;4.15;2.17;;;;;;;;;;5017668;28;20108;-82
2022/06/09 06:06:54;;;;;;;3.67;2.10;;;;;;;;;;5012349;28;20111;-81
2022/06/09 06:09:23;;;;;;;3.28;2.25;;;;;;;;;;5008476;28;20479;-82
2022/06/09 06:11:49;;;;;;;6.63;1.90;;;;;;;;;;5010819;28;20420;-82
2022/06/09 06:14:17;;;;;;;3.47;2.22;;;;;;;;;;5009513;28;20037;-83
2022/06/09 06:16:43;;;;;;;3.17;2.05;;;;;;;;;;5007703;28;20030;-82
2022/06/09 06:19:12;;;;;;;4.18;2.22;;;15.30;99.90;;;;;;5006616;28;20029;-81
2022/06/09 06:21:38;;;;;;;6.82;3.60;;;16.10;99.90;;;;;;5013182;28;20018;-83
2022/06/09 06:24:05;;;;;;;4.78;2.42;;;;;;;;;;5011670;28;20695;-81
2022/06/09 06:26:33;;;;;;;4.45;2.05;;;16.50;99.90;;;;;;5004086;28;20772;-81
2022/06/09 06:28:59;;;;;;;3.63;2.40;;;;;;;;;;5003946;28;20137;-82
2022/06/09 06:31:25;;;;;;;3.58;1.92;;;;;;;;;;5006676;28;20494;-81
2022/06/09 06:33:51;;;;;;;6.00;1.95;;;;;;;;;;5001157;28;20032;-82
2022/06/09 06:36:17;;;;;;;2.75;1.70;;;;;;;;;;5010939;28;20095;-81
2022/06/09 06:38:43;;;;;;;1.85;1.13;;;16.90;99.90;;;;;;5006051;28;20024;-82
2022/06/09 06:41:11;;;;;;;1.85;1.45;;;17.00;99.90;;;;;;5008848;28;20037;-82
2022/06/09 06:43:37;;;;;;;3.22;2.03;;;17.20;99.90;;;;;;5011101;28;20041;-82
2022/06/09 06:46:03;;;;;;;1.80;1.42;;;;;;;;;;5008653;28;20124;-82
2022/06/09 06:48:29;;;;;;;7.72;1.67;;;;;;;;;;5006657;28;20054;-81
2022/06/09 06:50:55;;;;;;;2.45;1.42;;;;;;;;;;5010967;28;20026;-83
2022/06/09 06:53:21;;;;;;;2.58;1.33;;;;;;;;;;5010861;28;20026;-82
2022/06/09 06:55:47;;;;;;;1.88;0.98;;;17.50;99.90;;;;;;5012082;28;20033;-82
2022/06/09 06:58:13;;;;;;;2.25;1.27;;;;;;;;;;5006263;28;20037;-81
2022/06/09 07:00:39;;;;;;;1.65;1.15;;;19.50;99.90;;;;;;5014858;28;20030;-82
2022/06/09 07:03:07;;;;;;;2.78;1.10;;;;;;;;;;5008302;28;20187;-83
2022/06/09 07:05:34;;;;;;;3.10;1.73;;;19.80;99.90;;;;;;5013962;28;20037;-82
2022/06/09 07:08:00;;;;;;;2.97;1.15;;;20.00;99.90;;;;;;5015881;28;20041;-82
2022/06/09 07:10:26;;;;;;;1.23;0.82;;;21.70;99.90;;;;;;5019271;28;20034;-81
2022/06/09 07:12:52;;;;;;;4.50;1.02;;;;;;;;;;5012592;28;20117;-80
2022/06/09 07:15:18;;;;;;;1.38;1.10;;;;;;;;;;5016039;28;20041;-82
2022/06/09 07:17:44;;;;;;;1.92;1.08;;;;;;;;;;5008024;28;20026;-80
2022/06/09 07:20:11;;;;;;;1.52;1.20;;;22.30;98.80;;;;;;5017862;28;20026;-82
2022/06/09 07:22:37;;;;;;;1.20;0.70;;;;;;;;;;5020260;28;20386;-83
2022/06/09 07:25:04;;;;;;;1.27;0.70;;;;;;;;;;5018101;28;20033;-82
2022/06/09 07:27:31;;;;;;;2.95;0.80;;;;;;;;;;5016854;28;20049;-82
2022/06/09 07:29:57;;;;;;;2.55;1.25;;;;;;;;;;5016870;28;20053;-83
2022/06/09 07:32:23;;;;;;;0.93;0.80;;;;;;;;;;5019295;28;20028;-84
2022/06/09 07:34:49;;;;;;;1.27;0.50;;;21.40;99.70;;;;;;5020264;28;20453;-82
2022/06/09 07:37:16;;;;;;;2.05;0.70;;;21.20;99.90;;;;;;5020092;28;20045;-82
2022/06/09 07:39:42;;;;;;;3.50;0.80;;;20.10;99.90;;;;;;5019529;28;20034;-83
2022/06/09 07:42:09;;;;;;;1.42;0.70;;;19.40;99.90;;;;;;5012135;28;20022;-82
2022/06/09 07:44:35;;;;;;;1.10;0.70;;;;;;;;;;5009874;28;20175;-83
2022/06/09 07:47:01;;;;;;;1.45;1.20;;;;;;;;;;5019790;28;20065;-81
2022/06/09 07:49:26;;;;;;;0.98;0.50;;;21.30;99.90;;;;;;5019585;28;20042;-82
2022/06/09 07:51:52;;;;;;;4.18;0.82;;;21.00;99.90;;;;;;5021627;28;20096;-82
2022/06/09 07:54:18;;;;;;;2.42;0.70;;;20.90;99.90;;;;;;5019864;28;20034;-82
2022/06/09 07:56:44;;;;;;;1.42;0.60;;;;;;;;;;5016046;28;20076;-82
2022/06/09 07:59:10;;;;;;;5.68;1.58;;;20.00;99.90;;;;;;5018631;28;20701;-81
2022/06/09 08:01:36;;;;;;;0.98;0.50;;;19.80;99.90;;;;;;5011699;28;20037;-82
2022/06/09 08:04:03;;;;;;;1.92;0.60;;;20.40;99.90;;;;;;5020080;28;20045;-81
2022/06/09 08:06:29;;;;;;;1.02;0.65;;;;;;;;;;5024517;28;20053;-81
2022/06/09 08:08:57;;;;;;;4.70;0.63;;;22.10;99.50;;;;;;5023434;28;20056;-82
2022/06/09 08:11:27;;;;;;;1.08;0.63;;;22.30;97.10;;;;;;5017618;28;20026;-83
2022/06/09 08:13:55;;;;;;;1.67;0.82;;;;;;;;;;5011432;28;20494;-82
2022/06/09 08:16:21;;;;;;;0.75;0.40;;;;;;;;;;5014343;28;20030;-83
2022/06/09 08:18:47;;;;;;;2.30;0.68;;;;;;;;;;5014927;28;20394;-81
2022/06/09 08:21:13;;;;;;;6.82;1.20;;;;;;;;;;5018639;28;20029;-82
2022/06/09 08:23:39;;;;;;;1.40;0.73;;;;;;;;;;5013908;28;20077;-82
2022/06/09 08:26:05;;;;;;;5.78;0.30;;;;;;;;;;5017024;28;20030;-82
2022/06/09 08:28:32;;;;;;;1.65;0.77;;;19.90;99.90;;;;;;5009887;28;20030;-82
2022/06/09 08:30:58;;;;;;;0.73;0.50;;;;;;;;;;5018473;28;20486;-80
2022/06/09 08:33:25;;;;;;;1.98;0.40;;;19.80;99.90;;;;;;5008852;28;20102;-81
2022/06/09 08:35:52;;;;;;;1.52;0.47;;;19.50;99.90;;;;;;5011004;28;20032;-82
2022/06/09 08:38:19;;;;;;;2.28;0.70;;;21.00;99.90;;;;;;5011976;28;20038;-81
2022/06/09 08:40:52;;;;;;;;;;;22.20;98.90;;;;;;5014542;28;20026;-82
2022/06/09 08:43:34;;;;;;;;;;;23.50;96.40;;;;;;5006662;28;19910;-81
2022/06/09 08:46:26;;;;;;;;;;;24.60;93.90;;;;;;5013065;28;19921;-81
2022/06/09 08:48:56;;;;;;;;;;;23.00;94.50;;;;;;4979343;28;19921;-82
2022/06/09 08:51:38;;;;;;;;;;;22.50;94.90;;;;;;5015781;28;19914;-82
2022/06/09 08:54:15;;;;;;;;;;;24.40;91.00;;;;;;5008985;28;19916;-81
2022/06/09 08:56:41;;;;;;;0.85;0.45;;;;;;;;;;5009478;28;19913;-81
2022/06/09 08:59:13;;;;;;;3.20;0.40;;;;;;;;;;5016393;28;20030;-82
2022/06/09 09:01:38;;;;;;;3.37;0.50;;;;;;;;;;5015644;28;20533;-82
2022/06/09 09:04:04;;;;;;;;;;;22.30;91.70;;;;;;5014087;28;20030;-82
2022/06/09 09:06:35;;;;;;;;;;;23.00;94.40;;;;;;5017545;28;19968;-82
2022/06/09 09:09:24;;;;;;;;;;;25.10;91.60;;;;;;5018249;28;19917;-84
2022/06/09 09:11:54;;;;;;;;;;;26.20;90.70;;;;;;5008290;28;20273;-81
2022/06/09 09:14:23;;;;;;;;;;;27.50;77.90;;;;;;5005895;28;19909;-83
2022/06/09 09:17:08;;;;;;;;;;;27.20;71.90;;;;;;5011236;28;19906;-82
2022/06/09 09:19:39;;;;;;;;;;;26.60;75.80;;;;;;5006418;28;19917;-81
2022/06/09 09:22:10;;;;;;;;;;;26.50;74.80;;;;;;5011482;28;19909;-83
2022/06/09 09:24:35;;;;;;;;;;;26.00;78.50;;;;;;5011588;28;19905;-81
2022/06/09 09:27:18;;;;;;;2.38;0.45;;;25.10;78.10;;;;;;5014797;28;19912;-83
2022/06/09 09:29:51;;;;;;;;;;;23.00;85.30;;;;;;5004830;28;20046;-82
2022/06/09 09:32:18;;;;;;;;;;;;;;;;;;5009656;28;19912;-82
2022/06/09 09:34:44;;;;;;;;;;;;;;;;;;5014695;28;19917;-81
2022/06/09 09:37:21;;;;;;;;;;;22.40;93.00;;;;;;5011999;28;19984;-82
2022/06/09 09:39:54;;;;;;;;;;;22.30;92.70;;;;;;5008315;28;19906;-82
2022/06/09 09:42:22;;;;;;;;;;;22.10;92.40;;;;;;5015259;28;20396;-81
2022/06/09 09:45:17;;;;;;;;;;;22.20;93.10;;;;;;5018749;28;19964;-80
2022/06/09 09:47:51;;;;;;;;;;;22.00;93.40;;;;;;5002244;28;20248;-81
2022/06/09 09:50:28;;;;;;;;;;;22.00;94.20;;;;;;5015980;28;19975;-82
2022/06/09 09:52:56;;;;;;;;;;;21.90;93.20;;;;;;5010752;28;19909;-82
2022/06/09 09:55:36;;;;;;;;;;;22.20;92.50;;;;;;5018319;28;19905;-82
2022/06/09 09:58:01;;;;;;;;;;;;;;;;;;5011250;28;19905;-81
2022/06/09 10:00:27;;;;;;;;;;;;;;;;;;5014764;28;19971;-82
2022/06/09 10:08:38;;;;;;;;;;;21.60;95.70;;;;;;5014085;28;19988;-83
2022/06/09 10:11:53;;;;;;;;;;;21.60;94.10;;;;;;5009571;28;19916;-81
2022/06/09 10:13:51;;;;;;;;;;;21.90;93.40;;;;;;5005044;28;19945;-81
2022/06/09 10:16:17;;;;;;;;;;;21.80;93.70;;;;;;5008532;28;20366;-82
2022/06/09 10:18:43;;;;;;;;;;;21.50;93.00;;;;;;5008758;28;19928;-82
2022/06/09 10:21:11;;;;;;;;;;;21.30;94.00;;;;;;5015055;28;19916;-82
2022/06/09 10:23:46;;;;;;;;;;;21.30;94.60;;;;;;5013920;28;19955;-80
2022/06/09 10:26:21;;;;;;;;;;;21.40;95.10;;;;;;5018303;28;19968;-81
2022/06/09 10:28:47;;;;;;;;;;;;;;;;;;5014421;28;19918;-81
2022/06/09 10:31:31;;;;;;;;;;;21.40;94.70;;;;;;5013383;28;19910;-82
2022/06/09 10:34:02;;;;;;;;;;;21.50;94.10;;;;;;5014050;28;19910;-81
2022/06/09 10:36:50;;;;;;;;;;;21.30;93.60;;;;;;5015007;28;20507;-80
2022/06/09 10:39:16;;;;;;;;;;;21.00;93.70;;;;;;5004363;28;19905;-80
2022/06/09 10:41:42;;;;;;;;;;;;;;;;;;5015774;28;19989;-80
2022/06/09 10:44:08;;;;;;;;;;;;;;;;;;5007474;28;19945;-80
2022/06/09 10:46:36;;;;;;;;;;;20.80;95.20;;;;;;5010481;28;19984;-81
2022/06/09 10:55:16;;;;;;;;;;;21.50;93.90;;;;;;5014790;28;19927;-81
2022/06/09 10:57:56;;;;;;;;;;;21.20;93.10;;;;;;5013782;28;19910;-82
2022/06/09 11:00:30;;;;;;;;;;;20.80;94.70;;;;;;5019127;28;19905;-81
2022/06/09 11:02:59;;;;;;;;;;;19.40;96.60;;;;;;5015641;28;20443;-81
2022/06/09 11:05:32;;;;;;;;;;;20.10;97.50;;;;;;5015271;28;19910;-82
2022/06/09 11:08:00;;;;;;;;;;;20.20;97.10;;;;;;5016227;28;19973;-83
2022/06/09 11:10:41;;;;;;;;;;;20.00;97.10;;;;;;5015977;28;19913;-83
2022/06/09 11:13:06;;;;;;;;;;;20.10;98.60;;;;;;5017584;28;19920;-80
2022/06/09 11:15:32;;;;;;;;;;;;;;;;;;5015195;28;19940;-81
2022/06/09 11:18:07;;;;;;;;;;;20.20;98.00;;;;;;5016884;28;19948;-82
2022/06/09 11:20:33;;;;;;;;;;;;;;;;;;5014798;28;19945;-81
2022/06/09 11:23:17;;;;;;;;;;;20.60;97.40;;;;;;5015176;28;19916;-81
2022/06/09 11:25:43;;;;;;;;;;;;;;;;;;5012867;28;19960;-81
2022/06/09 11:28:09;;;;;;;;;;;;;;;;;;5010407;28;19913;-81
2022/06/09 11:30:34;;;;;;;;;;;20.80;94.40;;;;;;5013288;28;19916;-82
2022/06/09 11:33:03;;;;;;;;;;;20.90;94.60;;;;;;5009336;28;19909;-83
2022/06/09 11:35:28;;;;;;;;;;;20.80;95.30;;;;;;5014267;28;19913;-82
2022/06/09 11:38:14;;;;;;;;;;;20.70;93.80;;;;;;5012995;28;19905;-82
2022/06/09 11:40:40;;;;;;;;;;;;;;;;;;5016240;28;19912;-81
2022/06/09 11:43:05;;;;;;;;;;;20.70;93.70;;;;;;5012507;28;19909;-80
2022/06/09 11:45:40;;;;;;;;;;;20.90;94.60;;;;;;5016267;28;19921;-80
2022/06/09 11:48:06;;;;;;;;;;;20.70;94.60;;;;;;5014094;28;19913;-82
2022/06/09 11:50:34;;;;;;;;;;;20.30;94.30;;;;;;5013948;28;19913;-82
2022/06/09 11:53:01;;;;;;;;;;;20.60;94.40;;;;;;5013314;28;20396;-82
2022/06/09 11:58:35;;;;;;;;;;;21.10;94.30;;;;;;5018186;28;19924;-82
2022/06/09 12:01:18;;;;;;;;;;;20.30;94.40;;;;;;5008494;28;20358;-84
2022/06/09 12:04:02;;;;;;;;;;;19.20;94.40;;;;;;5007833;28;19929;-83
2022/06/09 12:06:28;;;;;;;;;;;;;;;;;;5015702;28;19916;-83
2022/06/09 12:08:59;;;;;;;;;;;20.30;94.70;;;;;;5015600;28;20193;-83
2022/06/09 12:11:25;;;;;;;;;;;;;;;;;;5014655;28;19956;-84
2022/06/09 12:14:15;;;;;;;;;;;20.50;94.10;;;;;;5015241;28;20428;-82
2022/06/09 12:16:54;;;;;;;;;;;20.50;93.60;;;;;;5007023;28;19964;-85
2022/06/09 12:19:20;;;;;;;;;;;;;;;;;;5013089;28;20362;-84
2022/06/09 12:21:46;;;;;;;;;;;;;;;;;;5014889;28;19906;-83
2022/06/09 12:24:14;;;;;;;;;;;20.90;91.70;;;;;;5015831;28;19906;-84
2022/06/09 12:26:40;;;;;;;;;;;;;;;;;;5022800;28;19945;-82
2022/06/09 12:29:17;;;;;;;;;;;21.50;93.10;;;;;;5018236;28;19918;-83
2022/06/09 12:31:43;;;;;;;;;;;;;;;;;;5011938;28;19913;-82
2022/06/09 12:34:09;;;;;;;;;;;22.20;89.80;;;;;;5012413;28;19919;-82
2022/06/09 12:36:35;;;;;;;;;;;;;;;;;;5015838;28;20365;-83
2022/06/09 12:39:01;;;;;;;;;;;;;;;;;;5015207;28;19957;-83
2022/06/09 12:41:27;;;;;;;;;;;;;;;;;;5014975;28;19917;-82
2022/06/09 12:43:53;;;;;;;;;;;;;;;;;;5014458;28;19917;-83
2022/06/09 12:46:19;;;;;;;;;;;;;;;;;;5013082;28;19913;-83
2022/06/09 12:48:45;;;;;;;;;;;21.30;91.00;;;;;;5014161;28;20004;-82
2022/06/09 12:51:11;;;;;;;;;;;;;;;;;;5010912;28;20083;-84
2022/06/09 12:53:38;;;;;;;;;;;21.40;89.50;;;;;;5013882;28;19909;-83
2022/06/09 12:56:04;;;;;;;;;;;;;;;;;;5016086;28;19937;-84
2022/06/09 12:58:40;;;;;;;;;;;21.70;87.40;;;;;;5014265;28;19913;-83
2022/06/09 13:01:11;;;;;;;;;;;21.30;88.70;;;;;;5016018;28;19913;-82
2022/06/09 13:03:42;;;;;;;;;;;21.50;90.00;;;;;;5024530;28;19909;-81
2022/06/09 13:06:08;;;;;;;;;;;;;;;;;;5014484;28;19905;-82
2022/06/09 13:08:41;;;;;;;;;;;21.60;88.00;;;;;;5015297;28;20416;-83
2022/06/09 13:11:07;;;;;;;;;;;;;;;;;;5006748;28;19952;-82
2022/06/09 13:13:42;;;;;;;;;;;21.20;90.00;;;;;;5011368;28;19916;-84
2022/06/09 13:16:10;;;;;;;;;;;20.90;90.20;;;;;;5016672;28;19949;-82
2022/06/09 13:18:37;;;;;;;;;;;20.80;91.10;;;;;;5011877;28;19909;-83
2022/06/09 13:21:06;;;;;;;;;;;20.90;90.40;;;;;;5011356;28;19935;-83
2022/06/09 13:23:32;;;;;;;;;;;20.80;91.80;;;;;;5013273;28;19956;-82
2022/06/09 13:25:58;;;;;;;;;;;20.90;91.30;;;;;;5011906;28;19997;-82
2022/06/09 13:28:29;;;;;;;;;;;20.70;91.10;;;;;;5010837;28;19941;-83
2022/06/09 13:30:55;;;;;;;;;;;;;;;;;;5010893;28;19940;-84
2022/06/09 13:33:23;;;;;;;;;;;20.70;90.20;;;;;;5009238;28;19949;-82
2022/06/09 13:35:50;;;;;;;;;;;20.80;91.20;;;;;;5011580;28;19964;-84
2022/06/09 13:38:17;;;;;;;;;;;;;;;;;;5012228;28;19928;-82
2022/06/09 13:40:43;;;;;;;;;;;;;;;;;;5009829;28;20374;-83
2022/06/09 13:43:09;;;;;;;;;;;;;;;;;;5009524;28;19918;-82
2022/06/09 13:45:34;;;;;;;;;;;20.60;91.50;;;;;;5006644;28;20561;-82
2022/06/09 13:48:06;;;;;;;;;;;20.40;91.90;;;;;;5008069;28;19933;-82
2022/06/09 13:50:31;;;;;;;;;;;;;;;;;;5016879;28;19918;-81
2022/06/09 13:52:57;;;;;;;;;;;;;;;;;;5014021;28;20361;-81
2022/06/09 13:55:25;;;;;;;;;;;20.50;92.00;;;;;;5014807;28;19905;-82
2022/06/09 13:57:51;;;;;;;;;;;;;;;;;;5011049;28;19945;-81
2022/06/09 14:00:17;;;;;;;;;;;;;;;;;;5012853;28;20389;-82
2022/06/09 14:02:44;;;;;;;;;;;20.80;92.30;;;;;;5010739;28;19909;-83
2022/06/09 14:05:12;;;;;;;;;;;20.70;87.70;;;;;;5006880;28;19909;-83
2022/06/09 14:07:38;;;;;;;;;;;;;;;;;;5013883;28;20373;-83
2022/06/09 14:10:04;;;;;;;;;;;;;;;;;;5013389;28;19917;-83
2022/06/09 14:12:29;;;;;;;;;;;20.80;89.90;;;;;;5013597;28;19992;-83
2022/06/09 14:14:55;;;;;;;;;;;20.60;90.00;;;;;;5003796;28;19909;-81
2022/06/09 14:17:20;;;;;;;;;;;;;;;;;;5009789;28;19917;-82
2022/06/09 14:19:46;;;;;;;;;;;;;;;;;;5004217;28;19961;-81
2022/06/09 14:22:12;;;;;;;;;;;20.70;92.20;;;;;;5015622;28;19910;-84
2022/06/09 14:24:37;;;;;;;;;;;20.60;91.70;;;;;;5021510;28;19905;-82
2022/06/09 14:27:03;;;;;;;;;;;20.40;93.70;;;;;;5014393;28;19909;-81
2022/06/09 14:29:29;;;;;;;;;;;20.30;93.70;;;;;;5010098;28;19913;-82
2022/06/09 14:31:54;;;;;;;;;;;20.50;92.70;;;;;;5013342;28;20420;-83
2022/06/09 14:34:20;;;;;;;;;;;19.50;93.10;;;;;;5007427;28;20358;-83
2022/06/09 14:36:46;;;;;;;;;;;;;;;;;;5009194;28;19924;-82
2022/06/09 14:39:11;;;;;;;;;;;;;;;;;;5012554;28;19985;-83
2022/06/09 14:41:37;;;;;;;;;;;20.70;91.70;;;;;;5013521;28;20373;-84
2022/06/09 14:44:03;;;;;;;;;;;20.50;91.00;;;;;;5012026;28;19914;-82
2022/06/09 14:46:31;;;;;;;;;;;21.00;90.40;;;;;;5006867;28;19981;-84
2022/06/09 14:48:57;;;;;;;;;;;;;;;;;;5011850;28;19980;-82
2022/06/09 14:51:24;;;;;;;;;;;21.40;91.00;;;;;;5010936;28;19988;-85
2022/06/09 14:53:50;;;;;;;;;;;21.30;91.70;;;;;;5011819;28;19905;-83
2022/06/09 14:56:16;;;;;;;;;;;21.30;91.50;;;;;;5008409;28;19996;-83
2022/06/09 14:58:42;;;;;;;;;;;21.20;91.30;;;;;;5012471;28;20258;-84
2022/06/09 15:01:08;;;;;;;;;;;;;;;;;;5012506;28;19912;-83
2022/06/09 15:03:33;;;;;;;;;;;21.60;91.80;;;;;;5011283;28;20300;-82
2022/06/09 15:05:59;;;;;;;;;;;21.30;91.40;;;;;;5015682;28;20000;-85
2022/06/09 15:08:25;;;;;;;;;;;21.50;91.40;;;;;;5016859;28;19948;-83
2022/06/09 15:10:51;;;;;;;;;;;21.40;89.90;;;;;;5015214;28;19955;-83